sensor_id;sensor_type;location;lat;lon;timestamp;temperature;humidity
76263;DHT22;65080;50.908;6.916;2023-05-14T00:02:07;14.20;72.10
76263;DHT22;65080;50.908;6.916;2023-05-14T00:04:35;14.20;72.20
76263;DHT22;65080;50.908;6.916;2023-05-14T00:07:04;14.10;72.00
76263;DHT22;65080;50.908;6.916;2023-05-14T00:09:32;14.10;72.10
76263;DHT22;65080;50.908;6.916;2023-05-14T00:12:01;14.10;72.30
76263;DHT22;65080;50.908;6.916;2023-05-14T00:14:29;14.10;72.30
76263;DHT22;65080;50.908;6.916;2023-05-14T00:16:57;14.00;72.20
76263;DHT22;65080;50.908;6.916;2023-05-14T00:19:27;14.00;72.20
76263;DHT22;65080;50.908;6.916;2023-05-14T00:21:55;14.00;72.20
76263;DHT22;65080;50.908;6.916;2023-05-14T00:24:24;13.90;72.10
76263;DHT22;65080;50.908;6.916;2023-05-14T00:26:52;13.80;72.00
76263;DHT22;65080;50.908;6.916;2023-05-14T00:29:20;13.80;72.20
76263;DHT22;65080;50.908;6.916;2023-05-14T00:31:48;13.80;72.40
76263;DHT22;65080;50.908;6.916;2023-05-14T00:34:16;13.70;72.40
76263;DHT22;65080;50.908;6.916;2023-05-14T00:36:46;13.70;72.50
76263;DHT22;65080;50.908;6.916;2023-05-14T00:39:14;13.70;72.60
76263;DHT22;65080;50.908;6.916;2023-05-14T00:41:42;13.70;72.80
76263;DHT22;65080;50.908;6.916;2023-05-14T00:44:11;13.70;72.90
76263;DHT22;65080;50.908;6.916;2023-05-14T00:46:39;13.70;73.00
76263;DHT22;65080;50.908;6.916;2023-05-14T00:49:09;13.60;72.80
76263;DHT22;65080;50.908;6.916;2023-05-14T00:51:37;13.60;72.80
76263;DHT22;65080;50.908;6.916;2023-05-14T00:54:08;13.60;73.00
76263;DHT22;65080;50.908;6.916;2023-05-14T00:56:36;13.60;73.10
76263;DHT22;65080;50.908;6.916;2023-05-14T00:59:04;13.60;73.00
76263;DHT22;65080;50.908;6.916;2023-05-14T01:01:33;13.60;73.00
76263;DHT22;65080;50.908;6.916;2023-05-14T01:04:01;13.50;72.90
76263;DHT22;65080;50.908;6.916;2023-05-14T01:06:35;13.50;72.80
76263;DHT22;65080;50.908;6.916;2023-05-14T01:09:16;13.40;72.90
76263;DHT22;65080;50.908;6.916;2023-05-14T01:11:51;13.40;72.90
76263;DHT22;65080;50.908;6.916;2023-05-14T01:14:27;13.40;72.80
76263;DHT22;65080;50.908;6.916;2023-05-14T01:16:59;13.30;72.70
76263;DHT22;65080;50.908;6.916;2023-05-14T01:19:34;13.30;72.80
76263;DHT22;65080;50.908;6.916;2023-05-14T01:22:05;13.20;72.80
76263;DHT22;65080;50.908;6.916;2023-05-14T01:24:33;13.20;72.70
76263;DHT22;65080;50.908;6.916;2023-05-14T01:27:06;13.20;72.70
76263;DHT22;65080;50.908;6.916;2023-05-14T01:29:39;13.10;72.90
76263;DHT22;65080;50.908;6.916;2023-05-14T01:32:09;13.10;73.00
76263;DHT22;65080;50.908;6.916;2023-05-14T01:34:39;13.10;73.10
76263;DHT22;65080;50.908;6.916;2023-05-14T01:37:10;13.00;73.10
76263;DHT22;65080;50.908;6.916;2023-05-14T01:39:39;13.00;73.20
76263;DHT22;65080;50.908;6.916;2023-05-14T01:42:08;13.00;73.30
76263;DHT22;65080;50.908;6.916;2023-05-14T01:44:37;13.00;73.30
76263;DHT22;65080;50.908;6.916;2023-05-14T01:47:05;12.90;73.30
76263;DHT22;65080;50.908;6.916;2023-05-14T01:49:33;12.90;73.50
76263;DHT22;65080;50.908;6.916;2023-05-14T01:52:03;13.00;73.70
76263;DHT22;65080;50.908;6.916;2023-05-14T01:54:32;13.00;73.80
76263;DHT22;65080;50.908;6.916;2023-05-14T01:57:01;13.00;73.80
76263;DHT22;65080;50.908;6.916;2023-05-14T01:59:29;12.90;73.80
76263;DHT22;65080;50.908;6.916;2023-05-14T02:01:57;12.90;73.90
76263;DHT22;65080;50.908;6.916;2023-05-14T02:04:26;13.00;74.00
76263;DHT22;65080;50.908;6.916;2023-05-14T02:06:54;13.00;73.90
76263;DHT22;65080;50.908;6.916;2023-05-14T02:09:22;13.00;73.80
76263;DHT22;65080;50.908;6.916;2023-05-14T02:11:52;13.00;73.90
76263;DHT22;65080;50.908;6.916;2023-05-14T02:14:20;12.90;74.00
76263;DHT22;65080;50.908;6.916;2023-05-14T02:16:48;12.90;73.80
76263;DHT22;65080;50.908;6.916;2023-05-14T02:19:17;12.90;73.80
76263;DHT22;65080;50.908;6.916;2023-05-14T02:21:45;12.80;73.80
76263;DHT22;65080;50.908;6.916;2023-05-14T02:24:13;12.80;73.90
76263;DHT22;65080;50.908;6.916;2023-05-14T02:26:41;12.80;73.90
76263;DHT22;65080;50.908;6.916;2023-05-14T02:29:11;12.80;74.00
76263;DHT22;65080;50.908;6.916;2023-05-14T02:31:39;12.80;74.20
76263;DHT22;65080;50.908;6.916;2023-05-14T02:34:07;12.80;74.40
76263;DHT22;65080;50.908;6.916;2023-05-14T02:36:35;12.80;74.50
76263;DHT22;65080;50.908;6.916;2023-05-14T02:39:04;12.70;74.60
76263;DHT22;65080;50.908;6.916;2023-05-14T02:41:32;12.70;74.70
76263;DHT22;65080;50.908;6.916;2023-05-14T02:44:00;12.70;74.80
76263;DHT22;65080;50.908;6.916;2023-05-14T02:46:31;12.70;74.90
76263;DHT22;65080;50.908;6.916;2023-05-14T02:48:59;12.70;75.00
76263;DHT22;65080;50.908;6.916;2023-05-14T02:51:28;12.70;75.20
76263;DHT22;65080;50.908;6.916;2023-05-14T02:53:56;12.70;75.20
76263;DHT22;65080;50.908;6.916;2023-05-14T02:56:26;12.70;75.20
76263;DHT22;65080;50.908;6.916;2023-05-14T02:58:54;12.70;75.30
76263;DHT22;65080;50.908;6.916;2023-05-14T03:01:22;12.70;75.50
76263;DHT22;65080;50.908;6.916;2023-05-14T03:03:52;12.70;75.50
76263;DHT22;65080;50.908;6.916;2023-05-14T03:06:21;12.70;75.50
76263;DHT22;65080;50.908;6.916;2023-05-14T03:08:49;12.70;75.60
76263;DHT22;65080;50.908;6.916;2023-05-14T03:11:17;12.70;75.60
76263;DHT22;65080;50.908;6.916;2023-05-14T03:13:45;12.70;75.70
76263;DHT22;65080;50.908;6.916;2023-05-14T03:16:13;12.70;75.60
76263;DHT22;65080;50.908;6.916;2023-05-14T03:18:42;12.60;75.40
76263;DHT22;65080;50.908;6.916;2023-05-14T03:21:11;12.60;75.40
76263;DHT22;65080;50.908;6.916;2023-05-14T03:23:39;12.60;75.50
76263;DHT22;65080;50.908;6.916;2023-05-14T03:26:07;12.60;75.50
76263;DHT22;65080;50.908;6.916;2023-05-14T03:28:36;12.60;75.60
76263;DHT22;65080;50.908;6.916;2023-05-14T03:31:04;12.50;75.50
76263;DHT22;65080;50.908;6.916;2023-05-14T03:33:32;12.50;75.50
76263;DHT22;65080;50.908;6.916;2023-05-14T03:36:00;12.50;75.60
76263;DHT22;65080;50.908;6.916;2023-05-14T03:38:30;12.40;75.50
76263;DHT22;65080;50.908;6.916;2023-05-14T03:40:58;12.40;75.60
76263;DHT22;65080;50.908;6.916;2023-05-14T03:43:26;12.40;75.60
76263;DHT22;65080;50.908;6.916;2023-05-14T03:45:54;12.30;75.40
76263;DHT22;65080;50.908;6.916;2023-05-14T03:48:23;12.30;75.30
76263;DHT22;65080;50.908;6.916;2023-05-14T03:50:51;12.30;75.30
76263;DHT22;65080;50.908;6.916;2023-05-14T03:53:19;12.20;75.10
76263;DHT22;65080;50.908;6.916;2023-05-14T03:55:48;12.10;75.00
76263;DHT22;65080;50.908;6.916;2023-05-14T03:58:17;11.90;75.30
76263;DHT22;65080;50.908;6.916;2023-05-14T04:00:45;11.90;75.60
76263;DHT22;65080;50.908;6.916;2023-05-14T04:03:13;11.90;75.70
76263;DHT22;65080;50.908;6.916;2023-05-14T04:05:42;11.90;75.70
76263;DHT22;65080;50.908;6.916;2023-05-14T04:08:10;11.90;75.80
76263;DHT22;65080;50.908;6.916;2023-05-14T04:10:38;11.80;75.80
76263;DHT22;65080;50.908;6.916;2023-05-14T04:13:07;11.90;76.00
76263;DHT22;65080;50.908;6.916;2023-05-14T04:15:36;11.90;75.90
76263;DHT22;65080;50.908;6.916;2023-05-14T04:18:05;11.90;75.90
76263;DHT22;65080;50.908;6.916;2023-05-14T04:20:33;11.90;75.90
76263;DHT22;65080;50.908;6.916;2023-05-14T04:23:03;11.90;75.80
76263;DHT22;65080;50.908;6.916;2023-05-14T04:25:31;11.90;75.80
76263;DHT22;65080;50.908;6.916;2023-05-14T04:27:59;11.90;75.90
76263;DHT22;65080;50.908;6.916;2023-05-14T04:30:28;11.90;76.00
76263;DHT22;65080;50.908;6.916;2023-05-14T04:32:57;11.90;76.10
76263;DHT22;65080;50.908;6.916;2023-05-14T04:35:25;11.90;76.20
76263;DHT22;65080;50.908;6.916;2023-05-14T04:37:53;11.90;76.10
76263;DHT22;65080;50.908;6.916;2023-05-14T04:40:21;11.90;76.20
76263;DHT22;65080;50.908;6.916;2023-05-14T04:42:50;11.90;76.20
76263;DHT22;65080;50.908;6.916;2023-05-14T04:45:18;11.90;76.20
76263;DHT22;65080;50.908;6.916;2023-05-14T04:47:48;12.00;76.10
76263;DHT22;65080;50.908;6.916;2023-05-14T04:50:17;12.00;76.60
76263;DHT22;65080;50.908;6.916;2023-05-14T04:52:45;12.00;76.70
76263;DHT22;65080;50.908;6.916;2023-05-14T04:55:13;12.10;76.80
76263;DHT22;65080;50.908;6.916;2023-05-14T04:57:41;12.20;77.00
76263;DHT22;65080;50.908;6.916;2023-05-14T05:00:11;12.20;77.00
76263;DHT22;65080;50.908;6.916;2023-05-14T05:02:39;12.20;77.00
76263;DHT22;65080;50.908;6.916;2023-05-14T05:05:09;12.30;77.20
76263;DHT22;65080;50.908;6.916;2023-05-14T05:07:37;12.30;77.30
76263;DHT22;65080;50.908;6.916;2023-05-14T05:10:07;12.40;77.40
76263;DHT22;65080;50.908;6.916;2023-05-14T05:12:35;12.40;77.40
76263;DHT22;65080;50.908;6.916;2023-05-14T05:15:04;12.40;77.50
76263;DHT22;65080;50.908;6.916;2023-05-14T05:17:32;12.40;77.60
76263;DHT22;65080;50.908;6.916;2023-05-14T05:20:01;12.40;77.60
76263;DHT22;65080;50.908;6.916;2023-05-14T05:22:32;12.50;77.90
76263;DHT22;65080;50.908;6.916;2023-05-14T05:25:00;12.50;77.90
76263;DHT22;65080;50.908;6.916;2023-05-14T05:27:31;12.50;77.70
76263;DHT22;65080;50.908;6.916;2023-05-14T05:30:00;12.50;77.90
76263;DHT22;65080;50.908;6.916;2023-05-14T05:32:29;12.60;78.00
76263;DHT22;65080;50.908;6.916;2023-05-14T05:34:58;12.60;78.10
76263;DHT22;65080;50.908;6.916;2023-05-14T05:37:26;12.70;78.20
76263;DHT22;65080;50.908;6.916;2023-05-14T05:39:56;12.60;78.10
76263;DHT22;65080;50.908;6.916;2023-05-14T05:42:24;12.70;78.30
76263;DHT22;65080;50.908;6.916;2023-05-14T05:44:53;12.70;78.40
76263;DHT22;65080;50.908;6.916;2023-05-14T05:47:21;12.80;78.60
76263;DHT22;65080;50.908;6.916;2023-05-14T05:49:49;12.80;78.70
76263;DHT22;65080;50.908;6.916;2023-05-14T05:52:17;12.90;78.90
76263;DHT22;65080;50.908;6.916;2023-05-14T05:54:45;12.90;78.90
76263;DHT22;65080;50.908;6.916;2023-05-14T05:57:15;13.00;79.00
76263;DHT22;65080;50.908;6.916;2023-05-14T05:59:43;13.10;79.00
76263;DHT22;65080;50.908;6.916;2023-05-14T06:02:11;13.20;78.80
76263;DHT22;65080;50.908;6.916;2023-05-14T06:04:40;13.30;78.80
76263;DHT22;65080;50.908;6.916;2023-05-14T06:07:08;13.30;78.80
76263;DHT22;65080;50.908;6.916;2023-05-14T06:09:36;13.40;78.70
76263;DHT22;65080;50.908;6.916;2023-05-14T06:12:05;13.50;78.70
76263;DHT22;65080;50.908;6.916;2023-05-14T06:14:34;13.60;78.70
76263;DHT22;65080;50.908;6.916;2023-05-14T06:17:03;13.70;78.60
76263;DHT22;65080;50.908;6.916;2023-05-14T06:19:31;13.70;78.40
76263;DHT22;65080;50.908;6.916;2023-05-14T06:21:59;13.80;78.40
76263;DHT22;65080;50.908;6.916;2023-05-14T06:24:28;13.80;78.30
76263;DHT22;65080;50.908;6.916;2023-05-14T06:26:56;13.90;78.30
76263;DHT22;65080;50.908;6.916;2023-05-14T06:29:25;14.00;78.30
76263;DHT22;65080;50.908;6.916;2023-05-14T06:31:59;14.00;78.00
76263;DHT22;65080;50.908;6.916;2023-05-14T06:34:27;14.00;77.90
76263;DHT22;65080;50.908;6.916;2023-05-14T06:36:56;14.00;78.10
76263;DHT22;65080;50.908;6.916;2023-05-14T06:39:24;14.10;78.40
76263;DHT22;65080;50.908;6.916;2023-05-14T06:41:52;14.10;78.40
76263;DHT22;65080;50.908;6.916;2023-05-14T06:44:20;14.20;78.50
76263;DHT22;65080;50.908;6.916;2023-05-14T06:46:48;14.30;78.50
76263;DHT22;65080;50.908;6.916;2023-05-14T06:49:18;14.40;78.40
76263;DHT22;65080;50.908;6.916;2023-05-14T06:51:47;14.40;78.40
76263;DHT22;65080;50.908;6.916;2023-05-14T06:54:15;14.50;78.40
76263;DHT22;65080;50.908;6.916;2023-05-14T06:56:43;14.60;78.40
76263;DHT22;65080;50.908;6.916;2023-05-14T06:59:11;14.60;78.20
76263;DHT22;65080;50.908;6.916;2023-05-14T07:01:40;14.80;78.30
76263;DHT22;65080;50.908;6.916;2023-05-14T07:04:08;14.90;78.30
76263;DHT22;65080;50.908;6.916;2023-05-14T07:06:37;15.00;78.20
76263;DHT22;65080;50.908;6.916;2023-05-14T07:09:05;15.10;78.10
76263;DHT22;65080;50.908;6.916;2023-05-14T07:11:34;15.20;77.90
76263;DHT22;65080;50.908;6.916;2023-05-14T07:14:02;15.20;77.60
76263;DHT22;65080;50.908;6.916;2023-05-14T07:16:30;15.40;77.50
76263;DHT22;65080;50.908;6.916;2023-05-14T07:18:58;15.40;77.20
76263;DHT22;65080;50.908;6.916;2023-05-14T07:21:26;15.50;76.90
76263;DHT22;65080;50.908;6.916;2023-05-14T07:23:56;15.60;76.60
76263;DHT22;65080;50.908;6.916;2023-05-14T07:26:24;15.70;76.30
76263;DHT22;65080;50.908;6.916;2023-05-14T07:28:52;15.70;75.90
76263;DHT22;65080;50.908;6.916;2023-05-14T07:31:20;15.80;75.90
76263;DHT22;65080;50.908;6.916;2023-05-14T07:33:49;15.90;75.70
76263;DHT22;65080;50.908;6.916;2023-05-14T07:36:17;16.00;75.40
76263;DHT22;65080;50.908;6.916;2023-05-14T07:38:45;16.10;75.20
76263;DHT22;65080;50.908;6.916;2023-05-14T07:41:15;16.10;74.60
76263;DHT22;65080;50.908;6.916;2023-05-14T07:43:43;16.20;73.90
76263;DHT22;65080;50.908;6.916;2023-05-14T07:46:12;16.30;73.40
76263;DHT22;65080;50.908;6.916;2023-05-14T07:48:41;16.40;72.80
76263;DHT22;65080;50.908;6.916;2023-05-14T07:51:11;16.50;72.40
76263;DHT22;65080;50.908;6.916;2023-05-14T07:53:39;16.60;72.10
76263;DHT22;65080;50.908;6.916;2023-05-14T07:56:08;16.60;71.20
76263;DHT22;65080;50.908;6.916;2023-05-14T07:58:37;16.70;70.50
76263;DHT22;65080;50.908;6.916;2023-05-14T08:01:05;16.80;70.00
76263;DHT22;65080;50.908;6.916;2023-05-14T08:03:35;16.90;69.60
76263;DHT22;65080;50.908;6.916;2023-05-14T08:06:03;16.90;69.10
76263;DHT22;65080;50.908;6.916;2023-05-14T08:08:32;17.00;68.80
76263;DHT22;65080;50.908;6.916;2023-05-14T08:11:02;17.10;68.30
76263;DHT22;65080;50.908;6.916;2023-05-14T08:13:31;17.10;67.90
76263;DHT22;65080;50.908;6.916;2023-05-14T08:16:01;17.10;67.60
76263;DHT22;65080;50.908;6.916;2023-05-14T08:18:29;17.20;67.50
76263;DHT22;65080;50.908;6.916;2023-05-14T08:20:57;17.20;67.10
76263;DHT22;65080;50.908;6.916;2023-05-14T08:23:26;17.30;66.80
76263;DHT22;65080;50.908;6.916;2023-05-14T08:25:54;17.40;66.20
76263;DHT22;65080;50.908;6.916;2023-05-14T08:28:22;17.50;65.80
76263;DHT22;65080;50.908;6.916;2023-05-14T08:30:51;17.60;65.50
76263;DHT22;65080;50.908;6.916;2023-05-14T08:33:20;17.60;64.80
76263;DHT22;65080;50.908;6.916;2023-05-14T08:35:49;17.70;63.80
76263;DHT22;65080;50.908;6.916;2023-05-14T08:38:17;17.70;63.10
76263;DHT22;65080;50.908;6.916;2023-05-14T08:40:47;17.80;62.50
76263;DHT22;65080;50.908;6.916;2023-05-14T08:43:19;17.80;61.70
76263;DHT22;65080;50.908;6.916;2023-05-14T08:45:53;17.90;61.10
76263;DHT22;65080;50.908;6.916;2023-05-14T08:48:25;18.00;60.70
76263;DHT22;65080;50.908;6.916;2023-05-14T08:50:56;18.00;60.20
76263;DHT22;65080;50.908;6.916;2023-05-14T08:53:24;18.10;59.80
76263;DHT22;65080;50.908;6.916;2023-05-14T08:55:53;18.10;59.30
76263;DHT22;65080;50.908;6.916;2023-05-14T08:58:23;18.20;59.00
76263;DHT22;65080;50.908;6.916;2023-05-14T09:00:53;18.30;58.80
76263;DHT22;65080;50.908;6.916;2023-05-14T09:03:21;18.40;58.70
76263;DHT22;65080;50.908;6.916;2023-05-14T09:05:52;18.50;58.30
76263;DHT22;65080;50.908;6.916;2023-05-14T09:08:25;18.50;57.50
76263;DHT22;65080;50.908;6.916;2023-05-14T09:10:54;18.60;57.30
76263;DHT22;65080;50.908;6.916;2023-05-14T09:13:22;18.70;57.10
76263;DHT22;65080;50.908;6.916;2023-05-14T09:15:54;18.80;57.10
76263;DHT22;65080;50.908;6.916;2023-05-14T09:18:23;18.80;57.00
76263;DHT22;65080;50.908;6.916;2023-05-14T09:20:53;18.90;56.90
76263;DHT22;65080;50.908;6.916;2023-05-14T09:23:24;18.90;56.80
76263;DHT22;65080;50.908;6.916;2023-05-14T09:25:53;18.90;56.50
76263;DHT22;65080;50.908;6.916;2023-05-14T09:28:22;18.90;56.40
76263;DHT22;65080;50.908;6.916;2023-05-14T09:30:54;19.00;56.30
76263;DHT22;65080;50.908;6.916;2023-05-14T09:33:25;19.10;56.20
76263;DHT22;65080;50.908;6.916;2023-05-14T09:35:57;19.20;56.10
76263;DHT22;65080;50.908;6.916;2023-05-14T09:38:29;19.20;55.60
76263;DHT22;65080;50.908;6.916;2023-05-14T09:40:58;19.30;55.60
76263;DHT22;65080;50.908;6.916;2023-05-14T09:43:26;19.40;55.40
76263;DHT22;65080;50.908;6.916;2023-05-14T09:45:54;19.40;54.70
76263;DHT22;65080;50.908;6.916;2023-05-14T09:48:23;19.50;54.50
76263;DHT22;65080;50.908;6.916;2023-05-14T09:50:52;19.50;54.40
76263;DHT22;65080;50.908;6.916;2023-05-14T09:53:21;19.50;54.40
76263;DHT22;65080;50.908;6.916;2023-05-14T09:55:50;19.60;54.10
76263;DHT22;65080;50.908;6.916;2023-05-14T09:58:18;19.70;53.80
76263;DHT22;65080;50.908;6.916;2023-05-14T10:00:46;19.70;53.30
76263;DHT22;65080;50.908;6.916;2023-05-14T10:03:15;19.70;53.00
76263;DHT22;65080;50.908;6.916;2023-05-14T10:05:47;19.80;53.00
76263;DHT22;65080;50.908;6.916;2023-05-14T10:08:23;19.90;53.10
76263;DHT22;65080;50.908;6.916;2023-05-14T10:10:53;20.00;52.90
76263;DHT22;65080;50.908;6.916;2023-05-14T10:13:26;20.00;52.80
76263;DHT22;65080;50.908;6.916;2023-05-14T10:15:58;20.10;52.70
76263;DHT22;65080;50.908;6.916;2023-05-14T10:18:30;20.20;52.40
76263;DHT22;65080;50.908;6.916;2023-05-14T10:21:04;20.20;51.80
76263;DHT22;65080;50.908;6.916;2023-05-14T10:23:34;20.20;51.60
76263;DHT22;65080;50.908;6.916;2023-05-14T10:26:04;20.20;51.50
76263;DHT22;65080;50.908;6.916;2023-05-14T10:28:33;20.30;51.60
76263;DHT22;65080;50.908;6.916;2023-05-14T10:31:02;20.40;51.50
76263;DHT22;65080;50.908;6.916;2023-05-14T10:33:45;20.40;51.60
76263;DHT22;65080;50.908;6.916;2023-05-14T10:36:14;20.50;51.20
76263;DHT22;65080;50.908;6.916;2023-05-14T10:38:43;20.60;51.60
76263;DHT22;65080;50.908;6.916;2023-05-14T10:41:12;20.50;51.50
76263;DHT22;65080;50.908;6.916;2023-05-14T10:43:44;20.70;51.60
76263;DHT22;65080;50.908;6.916;2023-05-14T10:46:13;20.80;51.30
76263;DHT22;65080;50.908;6.916;2023-05-14T10:48:42;20.90;51.10
76263;DHT22;65080;50.908;6.916;2023-05-14T10:51:11;21.00;51.40
76263;DHT22;65080;50.908;6.916;2023-05-14T10:53:40;21.00;50.60
76263;DHT22;65080;50.908;6.916;2023-05-14T10:56:11;21.00;50.80
76263;DHT22;65080;50.908;6.916;2023-05-14T10:58:42;21.10;50.90
76263;DHT22;65080;50.908;6.916;2023-05-14T11:01:11;21.10;50.60
76263;DHT22;65080;50.908;6.916;2023-05-14T11:03:41;21.10;50.50
76263;DHT22;65080;50.908;6.916;2023-05-14T11:06:12;21.00;50.30
76263;DHT22;65080;50.908;6.916;2023-05-14T11:08:40;20.90;50.30
76263;DHT22;65080;50.908;6.916;2023-05-14T11:11:11;20.90;50.50
76263;DHT22;65080;50.908;6.916;2023-05-14T11:13:40;20.90;50.60
76263;DHT22;65080;50.908;6.916;2023-05-14T11:16:08;20.90;50.40
76263;DHT22;65080;50.908;6.916;2023-05-14T11:18:52;20.90;50.10
76263;DHT22;65080;50.908;6.916;2023-05-14T11:21:27;20.90;50.30
76263;DHT22;65080;50.908;6.916;2023-05-14T11:23:55;21.00;50.40
76263;DHT22;65080;50.908;6.916;2023-05-14T11:26:26;21.00;50.30
76263;DHT22;65080;50.908;6.916;2023-05-14T11:28:54;21.10;50.10
76263;DHT22;65080;50.908;6.916;2023-05-14T11:31:22;21.20;49.90
76263;DHT22;65080;50.908;6.916;2023-05-14T11:33:52;21.30;49.70
76263;DHT22;65080;50.908;6.916;2023-05-14T11:36:21;21.40;50.20
76263;DHT22;65080;50.908;6.916;2023-05-14T11:38:49;21.50;49.50
76263;DHT22;65080;50.908;6.916;2023-05-14T11:41:18;21.60;49.40
76263;DHT22;65080;50.908;6.916;2023-05-14T11:43:50;21.70;49.20
76263;DHT22;65080;50.908;6.916;2023-05-14T11:46:18;21.70;49.00
76263;DHT22;65080;50.908;6.916;2023-05-14T11:48:47;21.70;49.00
76263;DHT22;65080;50.908;6.916;2023-05-14T11:51:16;21.70;48.90
76263;DHT22;65080;50.908;6.916;2023-05-14T11:53:44;21.80;48.80
76263;DHT22;65080;50.908;6.916;2023-05-14T11:56:13;21.80;48.60
76263;DHT22;65080;50.908;6.916;2023-05-14T11:58:47;21.70;48.40
76263;DHT22;65080;50.908;6.916;2023-05-14T12:01:16;21.70;48.00
76263;DHT22;65080;50.908;6.916;2023-05-14T12:03:44;21.70;47.80
76263;DHT22;65080;50.908;6.916;2023-05-14T12:06:13;21.70;47.80
76263;DHT22;65080;50.908;6.916;2023-05-14T12:08:41;21.70;47.40
76263;DHT22;65080;50.908;6.916;2023-05-14T12:11:10;21.70;47.10
76263;DHT22;65080;50.908;6.916;2023-05-14T12:13:38;21.80;46.90
76263;DHT22;65080;50.908;6.916;2023-05-14T12:16:08;21.90;46.60
76263;DHT22;65080;50.908;6.916;2023-05-14T12:18:37;22.00;46.60
76263;DHT22;65080;50.908;6.916;2023-05-14T12:21:06;22.10;46.70
76263;DHT22;65080;50.908;6.916;2023-05-14T12:23:34;22.20;46.80
76263;DHT22;65080;50.908;6.916;2023-05-14T12:26:06;22.30;46.40
76263;DHT22;65080;50.908;6.916;2023-05-14T12:28:37;22.40;45.90
76263;DHT22;65080;50.908;6.916;2023-05-14T12:31:09;22.50;45.70
76263;DHT22;65080;50.908;6.916;2023-05-14T12:33:38;22.60;45.20
76263;DHT22;65080;50.908;6.916;2023-05-14T12:36:07;22.80;44.70
76263;DHT22;65080;50.908;6.916;2023-05-14T12:38:48;22.90;44.30
76263;DHT22;65080;50.908;6.916;2023-05-14T12:41:16;23.00;44.00
76263;DHT22;65080;50.908;6.916;2023-05-14T12:43:46;23.10;43.60
76263;DHT22;65080;50.908;6.916;2023-05-14T12:46:15;23.20;43.20
76263;DHT22;65080;50.908;6.916;2023-05-14T12:48:44;23.20;43.00
76263;DHT22;65080;50.908;6.916;2023-05-14T12:51:13;23.20;42.50
76263;DHT22;65080;50.908;6.916;2023-05-14T12:53:41;23.10;42.10
76263;DHT22;65080;50.908;6.916;2023-05-14T12:56:10;23.10;41.50
76263;DHT22;65080;50.908;6.916;2023-05-14T12:58:38;23.30;40.90
76263;DHT22;65080;50.908;6.916;2023-05-14T13:01:07;23.40;40.10
76263;DHT22;65080;50.908;6.916;2023-05-14T13:03:35;23.80;39.70
76263;DHT22;65080;50.908;6.916;2023-05-14T13:06:05;24.10;39.20
76263;DHT22;65080;50.908;6.916;2023-05-14T13:08:34;24.50;38.40
76263;DHT22;65080;50.908;6.916;2023-05-14T13:11:02;24.80;37.40
76263;DHT22;65080;50.908;6.916;2023-05-14T13:13:30;25.00;36.60
76263;DHT22;65080;50.908;6.916;2023-05-14T13:15:58;25.10;36.20
76263;DHT22;65080;50.908;6.916;2023-05-14T13:18:27;25.10;36.00
76263;DHT22;65080;50.908;6.916;2023-05-14T13:20:55;25.20;36.10
76263;DHT22;65080;50.908;6.916;2023-05-14T13:23:25;25.50;35.60
76263;DHT22;65080;50.908;6.916;2023-05-14T13:25:53;25.70;34.50
76263;DHT22;65080;50.908;6.916;2023-05-14T13:28:21;25.90;33.70
76263;DHT22;65080;50.908;6.916;2023-05-14T13:31:03;26.00;33.50
76263;DHT22;65080;50.908;6.916;2023-05-14T13:33:34;25.90;33.50
76263;DHT22;65080;50.908;6.916;2023-05-14T13:36:03;25.80;34.50
76263;DHT22;65080;50.908;6.916;2023-05-14T13:38:34;25.80;34.70
76263;DHT22;65080;50.908;6.916;2023-05-14T13:41:02;25.60;34.90
76263;DHT22;65080;50.908;6.916;2023-05-14T13:43:32;25.50;35.60
76263;DHT22;65080;50.908;6.916;2023-05-14T13:46:02;25.30;35.90
76263;DHT22;65080;50.908;6.916;2023-05-14T13:48:30;25.10;35.30
76263;DHT22;65080;50.908;6.916;2023-05-14T13:50:59;24.90;34.70
76263;DHT22;65080;50.908;6.916;2023-05-14T13:53:27;24.80;34.60
76263;DHT22;65080;50.908;6.916;2023-05-14T13:55:57;24.70;35.10
76263;DHT22;65080;50.908;6.916;2023-05-14T13:58:27;24.70;35.60
76263;DHT22;65080;50.908;6.916;2023-05-14T14:00:55;24.70;35.40
76263;DHT22;65080;50.908;6.916;2023-05-14T14:03:23;25.00;35.80
76263;DHT22;65080;50.908;6.916;2023-05-14T14:05:52;25.40;36.40
76263;DHT22;65080;50.908;6.916;2023-05-14T14:08:20;25.70;36.70
76263;DHT22;65080;50.908;6.916;2023-05-14T14:10:50;26.10;37.00
76263;DHT22;65080;50.908;6.916;2023-05-14T14:13:22;26.60;35.50
76263;DHT22;65080;50.908;6.916;2023-05-14T14:15:51;26.90;35.00
76263;DHT22;65080;50.908;6.916;2023-05-14T14:18:19;27.30;34.10
76263;DHT22;65080;50.908;6.916;2023-05-14T14:20:47;27.70;32.90
76263;DHT22;65080;50.908;6.916;2023-05-14T14:23:15;28.10;32.30
76263;DHT22;65080;50.908;6.916;2023-05-14T14:25:43;28.50;31.20
76263;DHT22;65080;50.908;6.916;2023-05-14T14:28:12;28.70;30.20
76263;DHT22;65080;50.908;6.916;2023-05-14T14:30:43;28.90;29.50
76263;DHT22;65080;50.908;6.916;2023-05-14T14:33:11;28.90;29.00
76263;DHT22;65080;50.908;6.916;2023-05-14T14:35:39;28.90;29.00
76263;DHT22;65080;50.908;6.916;2023-05-14T14:38:07;29.00;28.70
76263;DHT22;65080;50.908;6.916;2023-05-14T14:40:36;29.20;28.30
76263;DHT22;65080;50.908;6.916;2023-05-14T14:43:04;29.00;28.30
76263;DHT22;65080;50.908;6.916;2023-05-14T14:45:32;29.00;28.70
76263;DHT22;65080;50.908;6.916;2023-05-14T14:48:25;29.00;28.90
76263;DHT22;65080;50.908;6.916;2023-05-14T14:50:54;28.70;28.70
76263;DHT22;65080;50.908;6.916;2023-05-14T14:53:23;28.40;29.20
76263;DHT22;65080;50.908;6.916;2023-05-14T14:55:52;28.10;28.90
76263;DHT22;65080;50.908;6.916;2023-05-14T14:58:21;27.90;28.70
76263;DHT22;65080;50.908;6.916;2023-05-14T15:00:51;27.80;28.80
76263;DHT22;65080;50.908;6.916;2023-05-14T15:03:20;27.90;29.00
76263;DHT22;65080;50.908;6.916;2023-05-14T15:05:50;28.00;28.60
76263;DHT22;65080;50.908;6.916;2023-05-14T15:08:23;28.20;28.10
76263;DHT22;65080;50.908;6.916;2023-05-14T15:10:51;28.30;27.80
76263;DHT22;65080;50.908;6.916;2023-05-14T15:13:20;28.40;28.10
76263;DHT22;65080;50.908;6.916;2023-05-14T15:15:49;28.50;28.40
76263;DHT22;65080;50.908;6.916;2023-05-14T15:18:17;28.60;28.40
76263;DHT22;65080;50.908;6.916;2023-05-14T15:20:46;28.70;28.40
76263;DHT22;65080;50.908;6.916;2023-05-14T15:23:15;28.70;28.30
76263;DHT22;65080;50.908;6.916;2023-05-14T15:25:43;28.60;28.20
76263;DHT22;65080;50.908;6.916;2023-05-14T15:28:12;28.50;28.40
76263;DHT22;65080;50.908;6.916;2023-05-14T15:30:40;28.20;28.50
76263;DHT22;65080;50.908;6.916;2023-05-14T15:33:09;27.90;28.90
76263;DHT22;65080;50.908;6.916;2023-05-14T15:35:37;27.50;28.70
76263;DHT22;65080;50.908;6.916;2023-05-14T15:38:05;27.20;29.10
76263;DHT22;65080;50.908;6.916;2023-05-14T15:40:35;26.80;29.20
76263;DHT22;65080;50.908;6.916;2023-05-14T15:43:03;26.40;29.20